sensor_id;sensor_type;location;lat;lon;timestamp;pressure;altitude;pressure_sealevel;temperature;humidity
13734;BME280;43298;52.560;13.508;2024-02-23T00:01:05;96514.44;;;10.24;100.00
13734;BME280;43298;52.560;13.508;2024-02-23T00:03:33;96511.84;;;10.24;100.00
13734;BME280;43298;52.560;13.508;2024-02-23T00:06:00;96518.28;;;10.28;100.00
13734;BME280;43298;52.560;13.508;2024-02-23T00:08:26;96516.19;;;10.23;100.00
13734;BME280;43298;52.560;13.508;2024-02-23T00:10:51;96513.47;;;10.17;100.00
13734;BME280;43298;52.560;13.508;2024-02-23T00:13:17;96517.97;;;10.15;100.00
13734;BME280;43298;52.560;13.508;2024-02-23T00:15:43;96511.53;;;10.11;100.00
13734;BME280;43298;52.560;13.508;2024-02-23T00:18:09;96522.63;;;10.27;100.00
13734;BME280;43298;52.560;13.508;2024-02-23T00:20:35;96525.88;;;10.29;100.00
13734;BME280;43298;52.560;13.508;2024-02-23T00:23:02;96519.72;;;10.38;100.00
13734;BME280;43298;52.560;13.508;2024-02-23T00:25:28;96522.75;;;10.50;100.00
13734;BME280;43298;52.560;13.508;2024-02-23T00:27:54;96508.19;;;10.57;100.00
13734;BME280;43298;52.560;13.508;2024-02-23T00:30:20;96508.88;;;10.51;100.00
13734;BME280;43298;52.560;13.508;2024-02-23T00:32:45;96508.69;;;10.60;100.00
13734;BME280;43298;52.560;13.508;2024-02-23T00:35:11;96508.50;;;10.62;100.00
13734;BME280;43298;52.560;13.508;2024-02-23T00:37:37;96495.75;;;10.60;100.00
13734;BME280;43298;52.560;13.508;2024-02-23T00:40:04;96507.31;;;10.72;100.00
13734;BME280;43298;52.560;13.508;2024-02-23T00:42:31;96515.91;;;10.65;100.00
13734;BME280;43298;52.560;13.508;2024-02-23T00:44:57;96523.03;;;10.63;100.00
13734;BME280;43298;52.560;13.508;2024-02-23T00:47:22;96530.16;;;10.53;100.00
13734;BME280;43298;52.560;13.508;2024-02-23T00:49:48;96524.38;;;10.43;100.00
13734;BME280;43298;52.560;13.508;2024-02-23T00:52:15;96536.66;;;10.33;100.00
13734;BME280;43298;52.560;13.508;2024-02-23T00:54:41;96541.53;;;10.28;100.00
13734;BME280;43298;52.560;13.508;2024-02-23T00:57:07;96533.78;;;10.28;100.00
13734;BME280;43298;52.560;13.508;2024-02-23T00:59:33;96535.06;;;10.24;100.00
13734;BME280;43298;52.560;13.508;2024-02-23T01:01:58;96536.34;;;10.44;100.00
13734;BME280;43298;52.560;13.508;2024-02-23T01:04:24;96542.78;;;10.40;100.00
13734;BME280;43298;52.560;13.508;2024-02-23T01:06:50;96549.91;;;10.38;100.00
13734;BME280;43298;52.560;13.508;2024-02-23T01:09:16;96567.63;;;10.33;100.00
13734;BME280;43298;52.560;13.508;2024-02-23T01:11:48;96581.53;;;10.24;100.00
13734;BME280;43298;52.560;13.508;2024-02-23T01:14:14;96567.34;;;10.20;100.00
13734;BME280;43298;52.560;13.508;2024-02-23T01:16:40;96571.06;;;10.25;100.00
13734;BME280;43298;52.560;13.508;2024-02-23T01:19:06;96567.50;;;10.26;100.00
13734;BME280;43298;52.560;13.508;2024-02-23T01:21:31;96583.97;;;10.25;100.00
13734;BME280;43298;52.560;13.508;2024-02-23T01:23:57;96591.84;;;10.32;100.00
13734;BME280;43298;52.560;13.508;2024-02-23T01:26:23;96596.41;;;10.30;100.00
13734;BME280;43298;52.560;13.508;2024-02-23T01:28:49;96598.63;;;10.49;100.00
13734;BME280;43298;52.560;13.508;2024-02-23T01:31:15;96599.44;;;10.49;100.00
13734;BME280;43298;52.560;13.508;2024-02-23T01:33:41;96615.56;;;10.51;100.00
13734;BME280;43298;52.560;13.508;2024-02-23T01:36:07;96609.72;;;10.65;100.00
13734;BME280;43298;52.560;13.508;2024-02-23T01:38:33;96607.75;;;10.75;100.00
13734;BME280;43298;52.560;13.508;2024-02-23T01:41:00;96612.75;;;10.77;100.00
13734;BME280;43298;52.560;13.508;2024-02-23T01:43:26;96616.13;;;10.77;100.00
13734;BME280;43298;52.560;13.508;2024-02-23T01:45:52;96616.78;;;10.79;100.00
13734;BME280;43298;52.560;13.508;2024-02-23T01:48:19;96615.47;;;10.83;100.00
13734;BME280;43298;52.560;13.508;2024-02-23T01:50:45;96612.09;;;10.83;100.00
13734;BME280;43298;52.560;13.508;2024-02-23T01:53:12;96589.44;;;10.93;100.00
13734;BME280;43298;52.560;13.508;2024-02-23T01:55:41;96550.50;;;10.94;100.00
13734;BME280;43298;52.560;13.508;2024-02-23T01:58:07;96507.66;;;11.00;100.00
13734;BME280;43298;52.560;13.508;2024-02-23T02:00:35;96438.25;;;11.19;100.00
13734;BME280;43298;52.560;13.508;2024-02-23T02:03:02;96358.94;;;11.34;100.00
13734;BME280;43298;52.560;13.508;2024-02-23T02:05:28;96301.84;;;11.36;100.00
13734;BME280;43298;52.560;13.508;2024-02-23T02:07:55;96282.06;;;11.43;100.00
13734;BME280;43298;52.560;13.508;2024-02-23T02:10:25;96254.88;;;11.47;100.00
13734;BME280;43298;52.560;13.508;2024-02-23T02:12:52;96251.94;;;11.35;100.00
13734;BME280;43298;52.560;13.508;2024-02-23T02:15:18;96276.19;;;11.34;100.00
13734;BME280;43298;52.560;13.508;2024-02-23T02:17:44;96292.13;;;11.23;100.00
13734;BME280;43298;52.560;13.508;2024-02-23T02:20:12;96323.22;;;11.15;100.00
13734;BME280;43298;52.560;13.508;2024-02-23T02:22:39;96354.06;;;11.17;100.00
13734;BME280;43298;52.560;13.508;2024-02-23T02:25:06;96397.16;;;11.24;100.00
13734;BME280;43298;52.560;13.508;2024-02-23T02:27:32;96473.94;;;11.24;100.00
13734;BME280;43298;52.560;13.508;2024-02-23T02:29:58;96523.94;;;11.08;100.00
13734;BME280;43298;52.560;13.508;2024-02-23T02:32:24;96592.91;;;11.16;100.00
13734;BME280;43298;52.560;13.508;2024-02-23T02:34:50;96625.25;;;11.04;100.00
13734;BME280;43298;52.560;13.508;2024-02-23T02:37:16;96653.22;;;11.08;100.00
13734;BME280;43298;52.560;13.508;2024-02-23T02:39:41;96687.50;;;11.02;100.00
13734;BME280;43298;52.560;13.508;2024-02-23T02:42:07;96725.44;;;11.02;100.00
13734;BME280;43298;52.560;13.508;2024-02-23T02:44:33;96759.53;;;10.97;100.00
13734;BME280;43298;52.560;13.508;2024-02-23T02:47:00;96816.72;;;10.94;100.00
13734;BME280;43298;52.560;13.508;2024-02-23T02:49:26;96901.72;;;11.05;100.00
13734;BME280;43298;52.560;13.508;2024-02-23T02:51:52;96977.81;;;11.03;100.00
13734;BME280;43298;52.560;13.508;2024-02-23T02:54:18;97040.47;;;10.97;100.00
13734;BME280;43298;52.560;13.508;2024-02-23T02:56:44;97108.31;;;10.91;100.00
13734;BME280;43298;52.560;13.508;2024-02-23T02:59:12;97143.50;;;10.84;100.00
13734;BME280;43298;52.560;13.508;2024-02-23T03:01:39;97170.34;;;10.65;100.00
13734;BME280;43298;52.560;13.508;2024-02-23T03:04:05;97188.00;;;10.70;100.00
13734;BME280;43298;52.560;13.508;2024-02-23T03:06:31;97214.84;;;10.59;100.00
13734;BME280;43298;52.560;13.508;2024-02-23T03:08:57;97238.50;;;10.64;100.00
13734;BME280;43298;52.560;13.508;2024-02-23T03:11:22;97255.41;;;10.59;100.00
13734;BME280;43298;52.560;13.508;2024-02-23T03:13:48;97256.38;;;10.58;100.00
13734;BME280;43298;52.560;13.508;2024-02-23T03:16:18;97284.41;;;10.53;100.00
13734;BME280;43298;52.560;13.508;2024-02-23T03:18:44;97287.06;;;10.43;100.00
13734;BME280;43298;52.560;13.508;2024-02-23T03:21:11;97302.78;;;10.50;100.00
13734;BME280;43298;52.560;13.508;2024-02-23T03:23:37;97307.50;;;10.37;100.00
13734;BME280;43298;52.560;13.508;2024-02-23T03:26:03;97316.72;;;10.39;100.00
13734;BME280;43298;52.560;13.508;2024-02-23T03:28:29;97320.38;;;10.19;100.00
13734;BME280;43298;52.560;13.508;2024-02-23T03:30:55;97333.38;;;10.27;100.00
13734;BME280;43298;52.560;13.508;2024-02-23T03:33:20;97351.31;;;10.29;100.00
13734;BME280;43298;52.560;13.508;2024-02-23T03:35:46;97369.16;;;10.22;100.00
13734;BME280;43298;52.560;13.508;2024-02-23T03:38:12;97366.84;;;10.19;100.00
13734;BME280;43298;52.560;13.508;2024-02-23T03:40:38;97392.44;;;10.13;100.00
13734;BME280;43298;52.560;13.508;2024-02-23T03:43:04;97397.59;;;10.13;100.00
13734;BME280;43298;52.560;13.508;2024-02-23T03:45:31;97399.84;;;9.89;100.00
13734;BME280;43298;52.560;13.508;2024-02-23T03:47:57;97388.13;;;9.94;100.00
13734;BME280;43298;52.560;13.508;2024-02-23T03:50:23;97415.44;;;10.06;100.00
13734;BME280;43298;52.560;13.508;2024-02-23T03:52:49;97449.09;;;10.05;100.00
13734;BME280;43298;52.560;13.508;2024-02-23T03:55:15;97479.16;;;10.06;100.00
13734;BME280;43298;52.560;13.508;2024-02-23T03:57:40;97469.94;;;9.94;100.00
13734;BME280;43298;52.560;13.508;2024-02-23T04:00:07;97489.88;;;9.92;100.00
13734;BME280;43298;52.560;13.508;2024-02-23T04:02:34;97506.31;;;10.00;100.00
13734;BME280;43298;52.560;13.508;2024-02-23T04:05:00;97522.88;;;9.98;100.00
13734;BME280;43298;52.560;13.508;2024-02-23T04:07:26;97526.03;;;9.82;100.00
13734;BME280;43298;52.560;13.508;2024-02-23T04:09:51;97508.78;;;9.73;100.00
13734;BME280;43298;52.560;13.508;2024-02-23T04:12:24;97529.72;;;9.80;100.00
13734;BME280;43298;52.560;13.508;2024-02-23T04:14:50;97529.41;;;9.92;100.00
13734;BME280;43298;52.560;13.508;2024-02-23T04:17:16;97537.41;;;9.99;100.00
13734;BME280;43298;52.560;13.508;2024-02-23T04:19:43;97540.00;;;9.99;100.00
13734;BME280;43298;52.560;13.508;2024-02-23T04:22:09;97549.94;;;9.75;100.00
13734;BME280;43298;52.560;13.508;2024-02-23T04:24:39;97548.97;;;9.57;100.00
13734;BME280;43298;52.560;13.508;2024-02-23T04:27:08;97527.25;;;9.50;100.00
13734;BME280;43298;52.560;13.508;2024-02-23T04:29:34;97515.72;;;9.35;100.00
13734;BME280;43298;52.560;13.508;2024-02-23T04:32:01;97505.28;;;9.46;100.00
13734;BME280;43298;52.560;13.508;2024-02-23T04:34:27;97499.84;;;9.49;100.00
13734;BME280;43298;52.560;13.508;2024-02-23T04:36:54;97490.59;;;9.37;100.00
13734;BME280;43298;52.560;13.508;2024-02-23T04:39:20;97494.56;;;9.50;100.00
13734;BME280;43298;52.560;13.508;2024-02-23T04:41:46;97531.63;;;9.59;100.00
13734;BME280;43298;52.560;13.508;2024-02-23T04:44:12;97548.84;;;9.49;100.00
13734;BME280;43298;52.560;13.508;2024-02-23T04:46:38;97608.75;;;9.62;100.00
13734;BME280;43298;52.560;13.508;2024-02-23T04:49:04;97648.09;;;9.54;100.00
13734;BME280;43298;52.560;13.508;2024-02-23T04:51:30;97659.47;;;9.42;100.00
13734;BME280;43298;52.560;13.508;2024-02-23T04:53:55;97672.13;;;9.55;100.00
13734;BME280;43298;52.560;13.508;2024-02-23T04:56:21;97693.94;;;9.51;100.00
13734;BME280;43298;52.560;13.508;2024-02-23T04:58:47;97701.00;;;9.49;100.00
13734;BME280;43298;52.560;13.508;2024-02-23T05:01:13;97713.47;;;9.44;100.00
13734;BME280;43298;52.560;13.508;2024-02-23T05:03:39;97731.84;;;9.50;100.00
13734;BME280;43298;52.560;13.508;2024-02-23T05:06:05;97743.13;;;9.59;100.00
13734;BME280;43298;52.560;13.508;2024-02-23T05:08:31;97748.53;;;9.46;100.00
13734;BME280;43298;52.560;13.508;2024-02-23T05:10:57;97755.72;;;9.52;100.00
13734;BME280;43298;52.560;13.508;2024-02-23T05:13:24;97781.63;;;9.51;100.00
13734;BME280;43298;52.560;13.508;2024-02-23T05:15:50;97784.22;;;9.51;100.00
13734;BME280;43298;52.560;13.508;2024-02-23T05:18:16;97802.84;;;9.54;100.00
13734;BME280;43298;52.560;13.508;2024-02-23T05:20:41;97810.97;;;9.50;100.00
13734;BME280;43298;52.560;13.508;2024-02-23T05:23:07;97789.72;;;9.37;100.00
13734;BME280;43298;52.560;13.508;2024-02-23T05:25:34;97812.88;;;9.48;100.00
13734;BME280;43298;52.560;13.508;2024-02-23T05:28:00;97824.31;;;9.34;100.00
13734;BME280;43298;52.560;13.508;2024-02-23T05:30:26;97847.47;;;9.24;100.00
13734;BME280;43298;52.560;13.508;2024-02-23T05:32:57;97873.25;;;9.04;100.00
13734;BME280;43298;52.560;13.508;2024-02-23T05:35:29;97876.44;;;8.96;100.00
13734;BME280;43298;52.560;13.508;2024-02-23T05:37:55;97867.50;;;8.80;100.00
13734;BME280;43298;52.560;13.508;2024-02-23T05:40:21;97868.56;;;8.77;100.00
13734;BME280;43298;52.560;13.508;2024-02-23T05:42:47;97866.81;;;8.78;100.00
13734;BME280;43298;52.560;13.508;2024-02-23T05:45:13;97897.00;;;8.76;100.00
13734;BME280;43298;52.560;13.508;2024-02-23T05:47:39;97904.06;;;8.63;100.00
13734;BME280;43298;52.560;13.508;2024-02-23T05:50:05;97909.34;;;8.61;100.00
13734;BME280;43298;52.560;13.508;2024-02-23T05:52:32;97913.09;;;8.57;100.00
13734;BME280;43298;52.560;13.508;2024-02-23T05:54:58;97921.88;;;8.55;100.00
13734;BME280;43298;52.560;13.508;2024-02-23T05:57:26;97920.63;;;8.38;100.00
13734;BME280;43298;52.560;13.508;2024-02-23T05:59:53;97905.53;;;8.23;100.00
13734;BME280;43298;52.560;13.508;2024-02-23T06:02:19;97882.59;;;8.20;100.00
13734;BME280;43298;52.560;13.508;2024-02-23T06:04:45;97887.72;;;8.20;100.00
13734;BME280;43298;52.560;13.508;2024-02-23T06:07:12;97898.38;;;8.15;100.00
13734;BME280;43298;52.560;13.508;2024-02-23T06:09:38;97910.69;;;8.12;100.00
13734;BME280;43298;52.560;13.508;2024-02-23T06:12:05;97927.16;;;8.20;100.00
13734;BME280;43298;52.560;13.508;2024-02-23T06:14:31;97959.22;;;8.16;100.00
13734;BME280;43298;52.560;13.508;2024-02-23T06:16:57;97977.25;;;8.16;100.00
13734;BME280;43298;52.560;13.508;2024-02-23T06:19:23;97988.44;;;8.15;100.00
13734;BME280;43298;52.560;13.508;2024-02-23T06:21:49;98010.94;;;8.13;100.00
13734;BME280;43298;52.560;13.508;2024-02-23T06:24:16;98017.34;;;8.08;100.00
13734;BME280;43298;52.560;13.508;2024-02-23T06:26:43;98029.97;;;8.00;100.00
13734;BME280;43298;52.560;13.508;2024-02-23T06:29:08;98036.44;;;8.05;100.00
13734;BME280;43298;52.560;13.508;2024-02-23T06:31:39;98029.13;;;7.88;100.00
13734;BME280;43298;52.560;13.508;2024-02-23T06:34:05;98022.56;;;7.84;100.00
13734;BME280;43298;52.560;13.508;2024-02-23T06:36:31;98018.00;;;7.88;100.00
13734;BME280;43298;52.560;13.508;2024-02-23T06:38:57;98015.91;;;7.82;100.00
13734;BME280;43298;52.560;13.508;2024-02-23T06:41:23;98005.97;;;7.77;100.00
13734;BME280;43298;52.560;13.508;2024-02-23T06:43:48;98009.31;;;7.78;100.00
13734;BME280;43298;52.560;13.508;2024-02-23T06:46:14;98006.19;;;7.85;100.00
13734;BME280;43298;52.560;13.508;2024-02-23T06:48:40;98020.97;;;7.94;100.00
13734;BME280;43298;52.560;13.508;2024-02-23T06:51:07;98030.78;;;8.00;100.00
13734;BME280;43298;52.560;13.508;2024-02-23T06:53:36;98020.59;;;7.99;100.00
13734;BME280;43298;52.560;13.508;2024-02-23T06:56:02;98034.44;;;8.09;100.00
13734;BME280;43298;52.560;13.508;2024-02-23T06:58:28;98046.03;;;8.14;100.00
13734;BME280;43298;52.560;13.508;2024-02-23T07:00:54;98058.72;;;8.28;100.00
13734;BME280;43298;52.560;13.508;2024-02-23T07:03:20;98083.06;;;8.35;100.00
13734;BME280;43298;52.560;13.508;2024-02-23T07:05:45;98104.81;;;8.31;100.00
13734;BME280;43298;52.560;13.508;2024-02-23T07:08:12;98112.78;;;8.28;100.00
13734;BME280;43298;52.560;13.508;2024-02-23T07:10:38;98105.50;;;8.22;100.00
13734;BME280;43298;52.560;13.508;2024-02-23T07:13:04;98117.88;;;8.17;100.00
13734;BME280;43298;52.560;13.508;2024-02-23T07:15:30;98110.13;;;8.17;100.00
13734;BME280;43298;52.560;13.508;2024-02-23T07:17:58;98135.00;;;8.29;100.00
13734;BME280;43298;52.560;13.508;2024-02-23T07:20:24;98144.97;;;8.34;100.00
13734;BME280;43298;52.560;13.508;2024-02-23T07:22:50;98157.63;;;8.37;100.00
13734;BME280;43298;52.560;13.508;2024-02-23T07:25:17;98175.97;;;8.32;100.00
13734;BME280;43298;52.560;13.508;2024-02-23T07:27:45;98174.69;;;8.38;100.00
13734;BME280;43298;52.560;13.508;2024-02-23T07:30:12;98199.88;;;8.34;100.00
13734;BME280;43298;52.560;13.508;2024-02-23T07:32:38;98215.56;;;8.42;100.00
13734;BME280;43298;52.560;13.508;2024-02-23T07:35:04;98214.97;;;8.39;100.00
13734;BME280;43298;52.560;13.508;2024-02-23T07:37:31;98221.03;;;8.38;100.00
13734;BME280;43298;52.560;13.508;2024-02-23T07:39:58;98218.56;;;8.36;100.00
13734;BME280;43298;52.560;13.508;2024-02-23T07:42:25;98244.56;;;8.33;100.00
13734;BME280;43298;52.560;13.508;2024-02-23T07:44:51;98242.53;;;8.26;100.00
13734;BME280;43298;52.560;13.508;2024-02-23T07:47:17;98239.25;;;8.24;100.00
13734;BME280;43298;52.560;13.508;2024-02-23T07:49:43;98238.22;;;8.26;100.00
13734;BME280;43298;52.560;13.508;2024-02-23T07:52:08;98235.75;;;8.25;100.00
13734;BME280;43298;52.560;13.508;2024-02-23T07:54:34;98231.41;;;8.25;100.00
13734;BME280;43298;52.560;13.508;2024-02-23T07:57:00;98231.63;;;8.22;100.00
13734;BME280;43298;52.560;13.508;2024-02-23T07:59:26;98230.34;;;8.28;100.00
13734;BME280;43298;52.560;13.508;2024-02-23T08:01:53;98232.81;;;8.29;100.00
13734;BME280;43298;52.560;13.508;2024-02-23T08:04:21;98239.25;;;8.24;100.00
13734;BME280;43298;52.560;13.508;2024-02-23T08:06:48;98255.94;;;8.42;100.00
13734;BME280;43298;52.560;13.508;2024-02-23T08:09:15;98279.59;;;8.70;100.00
13734;BME280;43298;52.560;13.508;2024-02-23T08:11:42;98267.38;;;9.07;100.00
13734;BME280;43298;52.560;13.508;2024-02-23T08:14:09;98285.91;;;9.45;100.00
13734;BME280;43298;52.560;13.508;2024-02-23T08:16:36;98327.91;;;9.69;100.00
13734;BME280;43298;52.560;13.508;2024-02-23T08:19:02;98324.53;;;10.13;100.00
13734;BME280;43298;52.560;13.508;2024-02-23T08:21:29;98360.88;;;10.32;100.00
13734;BME280;43298;52.560;13.508;2024-02-23T08:23:55;98399.47;;;10.44;100.00
13734;BME280;43298;52.560;13.508;2024-02-23T08:26:22;98419.34;;;10.55;100.00
13734;BME280;43298;52.560;13.508;2024-02-23T08:28:49;98449.06;;;10.49;100.00
13734;BME280;43298;52.560;13.508;2024-02-23T08:31:15;98468.69;;;10.30;100.00
13734;BME280;43298;52.560;13.508;2024-02-23T08:33:43;98483.63;;;10.03;100.00
13734;BME280;43298;52.560;13.508;2024-02-23T08:36:11;98483.34;;;9.73;100.00
13734;BME280;43298;52.560;13.508;2024-02-23T08:38:37;98479.78;;;9.52;100.00
13734;BME280;43298;52.560;13.508;2024-02-23T08:41:04;98451.47;;;9.39;100.00
13734;BME280;43298;52.560;13.508;2024-02-23T08:43:30;98421.53;;;9.37;100.00
13734;BME280;43298;52.560;13.508;2024-02-23T08:45:57;98427.53;;;9.37;100.00
13734;BME280;43298;52.560;13.508;2024-02-23T08:48:23;98427.66;;;9.36;100.00
13734;BME280;43298;52.560;13.508;2024-02-23T08:50:50;98417.94;;;9.39;100.00
13734;BME280;43298;52.560;13.508;2024-02-23T08:53:16;98424.63;;;9.42;100.00
13734;BME280;43298;52.560;13.508;2024-02-23T08:55:43;98442.25;;;9.48;100.00
13734;BME280;43298;52.560;13.508;2024-02-23T08:58:10;98456.06;;;9.47;100.00
13734;BME280;43298;52.560;13.508;2024-02-23T09:00:37;98469.09;;;9.56;100.00
13734;BME280;43298;52.560;13.508;2024-02-23T09:03:04;98478.63;;;9.67;100.00
13734;BME280;43298;52.560;13.508;2024-02-23T09:05:31;98499.88;;;9.70;100.00
13734;BME280;43298;52.560;13.508;2024-02-23T09:07:57;98513.38;;;9.74;100.00
13734;BME280;43298;52.560;13.508;2024-02-23T09:10:24;98534.53;;;9.90;100.00
13734;BME280;43298;52.560;13.508;2024-02-23T09:12:50;98562.38;;;9.97;100.00
13734;BME280;43298;52.560;13.508;2024-02-23T09:15:17;98561.09;;;10.03;100.00
13734;BME280;43298;52.560;13.508;2024-02-23T09:17:43;98576.66;;;10.14;100.00
13734;BME280;43298;52.560;13.508;2024-02-23T09:20:10;98592.38;;;10.11;100.00
13734;BME280;43298;52.560;13.508;2024-02-23T09:22:37;98602.28;;;10.28;100.00
13734;BME280;43298;52.560;13.508;2024-02-23T09:25:05;98606.53;;;10.40;100.00
13734;BME280;43298;52.560;13.508;2024-02-23T09:27:32;98626.97;;;10.54;100.00
13734;BME280;43298;52.560;13.508;2024-02-23T09:29:59;98646.34;;;10.48;100.00
13734;BME280;43298;52.560;13.508;2024-02-23T09:32:26;98651.53;;;10.59;100.00
13734;BME280;43298;52.560;13.508;2024-02-23T09:34:52;98657.34;;;10.85;100.00
13734;BME280;43298;52.560;13.508;2024-02-23T09:37:18;98686.50;;;11.09;100.00
13734;BME280;43298;52.560;13.508;2024-02-23T09:39:44;98706.81;;;10.80;100.00
13734;BME280;43298;52.560;13.508;2024-02-23T09:42:10;98731.84;;;10.80;100.00
13734;BME280;43298;52.560;13.508;2024-02-23T09:44:39;98729.88;;;10.94;100.00
13734;BME280;43298;52.560;13.508;2024-02-23T09:47:07;98765.72;;;10.88;100.00
13734;BME280;43298;52.560;13.508;2024-02-23T09:49:40;98781.59;;;11.05;100.00
13734;BME280;43298;52.560;13.508;2024-02-23T09:52:09;98781.44;;;10.85;100.00
13734;BME280;43298;52.560;13.508;2024-02-23T09:54:39;98791.94;;;10.94;100.00
13734;BME280;43298;52.560;13.508;2024-02-23T09:57:08;98806.06;;;11.01;100.00
13734;BME280;43298;52.560;13.508;2024-02-23T09:59:35;98830.31;;;11.11;100.00
13734;BME280;43298;52.560;13.508;2024-02-23T10:02:09;98837.91;;;10.91;100.00
13734;BME280;43298;52.560;13.508;2024-02-23T10:04:39;98830.44;;;11.21;100.00
13734;BME280;43298;52.560;13.508;2024-02-23T10:07:06;98824.50;;;11.53;100.00
13734;BME280;43298;52.560;13.508;2024-02-23T10:09:32;98817.13;;;11.71;100.00
13734;BME280;43298;52.560;13.508;2024-02-23T10:11:58;98823.38;;;11.79;100.00
13734;BME280;43298;52.560;13.508;2024-02-23T10:14:24;98834.25;;;11.50;100.00
13734;BME280;43298;52.560;13.508;2024-02-23T10:16:50;98828.66;;;11.67;100.00
13734;BME280;43298;52.560;13.508;2024-02-23T10:19:19;98835.53;;;11.44;100.00
13734;BME280;43298;52.560;13.508;2024-02-23T10:21:46;98864.75;;;11.01;100.00
13734;BME280;43298;52.560;13.508;2024-02-23T10:24:12;98849.22;;;10.77;100.00
13734;BME280;43298;52.560;13.508;2024-02-23T10:26:38;98831.31;;;10.63;100.00
13734;BME280;43298;52.560;13.508;2024-02-23T10:29:04;98795.13;;;10.63;100.00
13734;BME280;43298;52.560;13.508;2024-02-23T10:31:35;98780.34;;;10.76;100.00
13734;BME280;43298;52.560;13.508;2024-02-23T10:34:09;98766.59;;;11.10;100.00
13734;BME280;43298;52.560;13.508;2024-02-23T10:36:41;98759.09;;;11.95;100.00
13734;BME280;43298;52.560;13.508;2024-02-23T10:39:18;98769.38;;;12.29;100.00
13734;BME280;43298;52.560;13.508;2024-02-23T10:41:57;98776.06;;;12.31;100.00
13734;BME280;43298;52.560;13.508;2024-02-23T10:44:24;98786.75;;;11.95;100.00
13734;BME280;43298;52.560;13.508;2024-02-23T10:46:53;98778.53;;;11.90;100.00
13734;BME280;43298;52.560;13.508;2024-02-23T10:49:20;98794.31;;;11.65;100.00
13734;BME280;43298;52.560;13.508;2024-02-23T10:51:51;98787.47;;;11.64;100.00
13734;BME280;43298;52.560;13.508;2024-02-23T10:54:19;98797.31;;;11.59;100.00
13734;BME280;43298;52.560;13.508;2024-02-23T10:56:52;98805.44;;;11.54;100.00
13734;BME280;43298;52.560;13.508;2024-02-23T10:59:19;98828.19;;;11.62;100.00
13734;BME280;43298;52.560;13.508;2024-02-23T11:01:49;98818.31;;;11.67;100.00
13734;BME280;43298;52.560;13.508;2024-02-23T11:04:20;98820.66;;;11.81;100.00
13734;BME280;43298;52.560;13.508;2024-02-23T11:06:54;98827.38;;;11.61;100.00
13734;BME280;43298;52.560;13.508;2024-02-23T11:09:24;98832.81;;;11.35;100.00
13734;BME280;43298;52.560;13.508;2024-02-23T11:11:55;98816.50;;;11.34;100.00
13734;BME280;43298;52.560;13.508;2024-02-23T11:14:37;98835.31;;;11.36;100.00
13734;BME280;43298;52.560;13.508;2024-02-23T11:17:04;98829.06;;;11.28;100.00
13734;BME280;43298;52.560;13.508;2024-02-23T11:19:39;98815.78;;;11.32;100.00
13734;BME280;43298;52.560;13.508;2024-02-23T11:22:09;98810.25;;;11.37;100.00
13734;BME280;43298;52.560;13.508;2024-02-23T11:24:42;98806.50;;;11.52;100.00
13734;BME280;43298;52.560;13.508;2024-02-23T11:27:14;98802.97;;;11.42;100.00
13734;BME280;43298;52.560;13.508;2024-02-23T11:29:42;98800.13;;;11.34;100.00
13734;BME280;43298;52.560;13.508;2024-02-23T11:32:18;98803.91;;;11.30;100.00
13734;BME280;43298;52.560;13.508;2024-02-23T11:34:57;98805.34;;;11.67;100.00
13734;BME280;43298;52.560;13.508;2024-02-23T11:37:23;98800.53;;;11.84;100.00
13734;BME280;43298;52.560;13.508;2024-02-23T11:39:49;98798.41;;;11.89;100.00
13734;BME280;43298;52.560;13.508;2024-02-23T11:42:15;98800.03;;;11.90;100.00
13734;BME280;43298;52.560;13.508;2024-02-23T11:44:41;98819.22;;;11.99;100.00
13734;BME280;43298;52.560;13.508;2024-02-23T11:47:07;98821.59;;;11.80;100.00
13734;BME280;43298;52.560;13.508;2024-02-23T11:49:33;98807.81;;;11.90;100.00
13734;BME280;43298;52.560;13.508;2024-02-23T11:51:59;98810.63;;;11.87;100.00
13734;BME280;43298;52.560;13.508;2024-02-23T11:54:25;98815.69;;;11.89;100.00
13734;BME280;43298;52.560;13.508;2024-02-23T11:56:51;98821.34;;;11.61;100.00
13734;BME280;43298;52.560;13.508;2024-02-23T11:59:21;98821.34;;;11.61;100.00
13734;BME280;43298;52.560;13.508;2024-02-23T12:01:49;98830.44;;;11.66;100.00
13734;BME280;43298;52.560;13.508;2024-02-23T12:04:15;98817.72;;;11.74;100.00
13734;BME280;43298;52.560;13.508;2024-02-23T12:06:42;98815.59;;;11.68;100.00
13734;BME280;43298;52.560;13.508;2024-02-23T12:09:09;98815.59;;;11.68;100.00
13734;BME280;43298;52.560;13.508;2024-02-23T12:11:35;98826.56;;;11.72;100.00
13734;BME280;43298;52.560;13.508;2024-02-23T12:14:01;98823.47;;;11.67;100.00
13734;BME280;43298;52.560;13.508;2024-02-23T12:16:34;98831.84;;;11.92;100.00
13734;BME280;43298;52.560;13.508;2024-02-23T12:19:03;98828.66;;;12.11;100.00
13734;BME280;43298;52.560;13.508;2024-02-23T12:21:29;98842.31;;;12.02;100.00
13734;BME280;43298;52.560;13.508;2024-02-23T12:23:55;98844.44;;;11.97;100.00
13734;BME280;43298;52.560;13.508;2024-02-23T12:26:22;98852.19;;;11.75;100.00
13734;BME280;43298;52.560;13.508;2024-02-23T12:28:47;98861.06;;;11.38;100.00
13734;BME280;43298;52.560;13.508;2024-02-23T12:31:13;98852.94;;;11.31;100.00
13734;BME280;43298;52.560;13.508;2024-02-23T12:33:40;98849.25;;;11.12;100.00
13734;BME280;43298;52.560;13.508;2024-02-23T12:36:08;98837.97;;;11.13;100.00
13734;BME280;43298;52.560;13.508;2024-02-23T12:38:35;98831.72;;;11.15;100.00
13734;BME280;43298;52.560;13.508;2024-02-23T12:41:02;98831.88;;;11.36;100.00